createdAt,value
2022-09-18T00:01:21.309Z,7.45
2022-09-18T00:03:48.161Z,5.30
2022-09-18T00:06:22.812Z,10.13
2022-09-18T00:08:54.551Z,9.20
2022-09-18T00:11:24.264Z,9.00
2022-09-18T00:13:52.118Z,10.38
2022-09-18T00:16:20.500Z,9.85
2022-09-18T00:18:47.979Z,12.25
2022-09-18T00:21:20.861Z,10.77
2022-09-18T00:23:48.348Z,5.65
2022-09-18T00:26:17.110Z,12.52
2022-09-18T00:28:44.190Z,14.55
2022-09-18T00:31:14.295Z,9.80
2022-09-18T00:33:41.528Z,10.57
2022-09-18T00:36:17.975Z,11.02
2022-09-18T00:38:45.296Z,10.02
2022-09-18T00:41:16.067Z,12.45
2022-09-18T00:43:44.563Z,7.93
2022-09-18T00:46:29.484Z,10.50
2022-09-18T00:49:19.195Z,10.25
2022-09-18T00:51:49.700Z,12.90
2022-09-18T00:54:30.828Z,13.75
2022-09-18T00:57:01.599Z,12.85
2022-09-18T00:59:33.217Z,7.53
2022-09-18T01:02:00.858Z,8.10
2022-09-18T01:04:30.011Z,8.35
2022-09-18T01:07:13.428Z,8.07
2022-09-18T01:10:14.051Z,7.97
2022-09-18T01:13:05.652Z,11.75
2022-09-18T01:15:55.382Z,6.20
2022-09-18T01:18:44.488Z,6.97
2022-09-18T01:21:16.315Z,6.32
2022-09-18T01:24:04.360Z,8.10
2022-09-18T01:26:54.716Z,10.55
2022-09-18T01:29:40.538Z,8.25
2022-09-18T01:32:15.683Z,9.93
2022-09-18T01:34:52.514Z,12.25
2022-09-18T01:37:57.638Z,8.82
2022-09-18T01:40:31.163Z,7.95
2022-09-18T01:43:02.628Z,4.57
2022-09-18T01:45:34.333Z,12.98
2022-09-18T01:48:05.609Z,5.32
2022-09-18T01:50:42.574Z,13.60
2022-09-18T01:53:36.952Z,9.38
2022-09-18T01:56:09.678Z,8.57
2022-09-18T01:58:37.341Z,4.80
2022-09-18T02:01:12.979Z,13.05
2022-09-18T02:03:48.755Z,9.10
2022-09-18T02:06:49.122Z,8.43
2022-09-18T02:09:16.183Z,9.43
2022-09-18T02:11:46.076Z,10.10
2022-09-18T02:14:20.242Z,9.83
2022-09-18T02:17:12.439Z,13.27
2022-09-18T02:19:45.068Z,5.70
2022-09-18T02:22:16.209Z,8.23
2022-09-18T02:24:46.850Z,9.23
2022-09-18T02:27:15.275Z,4.70
2022-09-18T02:29:45.295Z,10.02
2022-09-18T02:32:13.116Z,9.02
2022-09-18T02:34:41.118Z,14.10
2022-09-18T02:37:29.129Z,5.93
2022-09-18T02:40:15.107Z,6.32
2022-09-18T02:42:55.569Z,9.07
2022-09-18T02:45:48.659Z,7.13
2022-09-18T02:48:43.593Z,4.10
2022-09-18T02:51:26.961Z,9.80
2022-09-18T02:54:00.220Z,8.70
2022-09-18T02:56:57.208Z,8.65
2022-09-18T02:59:46.554Z,6.93
2022-09-18T03:02:14.743Z,15.30
2022-09-18T03:04:41.481Z,10.73
2022-09-18T03:07:16.831Z,5.55
2022-09-18T03:09:45.840Z,5.30
2022-09-18T03:12:14.909Z,6.65
2022-09-18T03:17:13.799Z,6.78
2022-09-18T03:19:46.062Z,5.82
2022-09-18T03:22:14.020Z,5.75
2022-09-18T03:24:42.015Z,6.53
2022-09-18T03:27:10.405Z,10.07
2022-09-18T03:29:37.191Z,7.35
2022-09-18T03:32:04.311Z,6.85
2022-09-18T03:34:39.406Z,16.55
2022-09-18T03:37:06.237Z,9.73
2022-09-18T03:39:36.269Z,7.78
2022-09-18T03:42:04.663Z,8.35
2022-09-18T03:44:31.627Z,5.03
2022-09-18T03:47:00.399Z,6.57
2022-09-18T03:49:27.131Z,5.03
2022-09-18T03:51:54.519Z,4.50
2022-09-18T03:54:21.802Z,5.95
2022-09-18T03:56:56.678Z,6.68
2022-09-18T03:59:35.306Z,7.72
2022-09-18T04:02:15.222Z,5.78
2022-09-18T04:05:00.308Z,7.88
2022-09-18T04:08:05.445Z,6.03
2022-09-18T04:10:47.367Z,6.78
2022-09-18T04:13:14.379Z,6.75
2022-09-18T04:15:41.335Z,8.40
2022-09-18T04:18:07.986Z,4.82
2022-09-18T04:20:35.313Z,7.63
2022-09-18T04:23:03.288Z,9.32
2022-09-18T04:25:30.063Z,7.55
2022-09-18T04:27:57.094Z,11.73
2022-09-18T04:30:23.768Z,9.73
2022-09-18T04:32:50.463Z,14.20
2022-09-18T04:35:18.638Z,10.00
2022-09-18T04:37:45.444Z,3.67
2022-09-18T04:40:12.633Z,8.88
2022-09-18T04:42:41.170Z,7.20
2022-09-18T04:45:08.587Z,5.63
2022-09-18T04:47:35.242Z,8.85
2022-09-18T04:50:01.960Z,8.00
2022-09-18T04:52:30.904Z,4.25
2022-09-18T04:54:57.555Z,7.60
2022-09-18T04:57:24.343Z,5.32
2022-09-18T04:59:51.158Z,3.65
2022-09-18T05:02:19.165Z,6.97
2022-09-18T05:04:46.003Z,2.78
2022-09-18T05:07:34.271Z,7.85
2022-09-18T05:10:01.758Z,6.57
2022-09-18T05:12:30.880Z,5.22
2022-09-18T05:14:57.594Z,9.70
2022-09-18T05:17:24.822Z,5.47
2022-09-18T05:20:04.026Z,5.63
2022-09-18T05:22:37.411Z,6.72
2022-09-18T05:25:09.887Z,8.82
2022-09-18T05:27:36.768Z,6.82
2022-09-18T05:30:04.963Z,7.97
2022-09-18T05:32:59.385Z,2.80
2022-09-18T05:35:30.312Z,6.10
2022-09-18T05:37:58.615Z,3.97
2022-09-18T05:40:27.704Z,8.38
2022-09-18T05:42:54.805Z,6.32
2022-09-18T05:45:22.340Z,6.13
2022-09-18T05:48:00.981Z,10.32
2022-09-18T05:50:30.990Z,5.90
2022-09-18T05:53:00.792Z,8.48
2022-09-18T05:55:33.259Z,6.10
2022-09-18T05:58:01.774Z,5.90
2022-09-18T06:00:30.384Z,8.45
2022-09-18T06:03:07.001Z,8.90
2022-09-18T06:05:37.498Z,7.40
2022-09-18T06:08:09.961Z,6.03
2022-09-18T06:10:39.280Z,6.50
2022-09-18T06:13:10.317Z,9.77
2022-09-18T06:15:46.757Z,4.45
2022-09-18T06:18:14.706Z,5.07
2022-09-18T06:20:42.583Z,4.82
2022-09-18T06:23:10.240Z,6.25
2022-09-18T06:25:58.939Z,6.15
2022-09-18T06:28:25.961Z,5.18
2022-09-18T06:30:55.612Z,5.88
2022-09-18T06:33:22.402Z,5.53
2022-09-18T06:35:49.567Z,5.88
2022-09-18T06:38:24.301Z,6.03
2022-09-18T06:40:53.024Z,7.55
2022-09-18T06:43:26.476Z,2.72
2022-09-18T06:46:12.201Z,5.18
2022-09-18T06:48:43.716Z,3.22
2022-09-18T06:51:11.733Z,6.65
2022-09-18T06:53:58.387Z,7.07
2022-09-18T06:56:25.049Z,6.65
2022-09-18T06:58:53.514Z,4.65
2022-09-18T07:01:20.609Z,5.93
2022-09-18T07:03:50.805Z,6.80
2022-09-18T07:06:22.158Z,3.78
2022-09-18T07:08:50.841Z,4.90
2022-09-18T07:11:40.686Z,4.30
2022-09-18T07:14:08.655Z,3.88
2022-09-18T07:16:36.284Z,3.40
2022-09-18T07:19:04.467Z,5.88
2022-09-18T07:21:34.266Z,2.92
2022-09-18T07:24:01.035Z,3.83
2022-09-18T07:26:29.298Z,2.72
2022-09-18T07:28:56.619Z,4.10
2022-09-18T07:31:28.191Z,4.65
2022-09-18T07:33:56.219Z,6.72
2022-09-18T07:36:27.865Z,8.30
2022-09-18T07:38:54.556Z,6.57
2022-09-18T07:41:27.333Z,4.85
2022-09-18T07:43:54.436Z,5.00
2022-09-18T07:46:24.464Z,7.60
2022-09-18T07:49:02.990Z,6.53
2022-09-18T07:51:30.100Z,5.53
2022-09-18T07:53:58.855Z,5.45
2022-09-18T07:56:52.758Z,3.28
2022-09-18T07:59:22.821Z,5.10
2022-09-18T08:01:55.987Z,4.75
2022-09-18T08:04:24.616Z,4.82
2022-09-18T08:07:04.033Z,6.65
2022-09-18T08:09:51.517Z,3.15
2022-09-18T08:12:36.458Z,5.68
2022-09-18T08:15:22.506Z,5.10
2022-09-18T08:18:21.453Z,5.95
2022-09-18T08:20:57.441Z,2.78
2022-09-18T08:23:29.867Z,8.07
2022-09-18T08:26:03.720Z,4.53
2022-09-18T08:28:31.366Z,3.70
2022-09-18T08:31:00.718Z,3.47
2022-09-18T08:33:27.401Z,4.43
2022-09-18T08:35:55.547Z,5.45
2022-09-18T08:38:27.174Z,5.55
2022-09-18T08:41:26.510Z,3.92
2022-09-18T08:44:12.305Z,4.85
2022-09-18T08:46:56.503Z,6.47
2022-09-18T08:49:50.664Z,4.80
2022-09-18T08:52:23.783Z,3.63
2022-09-18T08:55:28.029Z,5.63
2022-09-18T08:58:25.172Z,2.97
2022-09-18T09:01:01.367Z,6.75
2022-09-18T09:03:52.151Z,2.70
2022-09-18T09:06:54.744Z,8.80
2022-09-18T09:09:46.939Z,4.32
2022-09-18T09:12:38.994Z,2.90
2022-09-18T09:15:23.763Z,4.80
2022-09-18T09:18:16.851Z,4.78
2022-09-18T09:20:58.525Z,4.05
2022-09-18T09:24:07.951Z,8.45
2022-09-18T09:27:09.287Z,5.85
2022-09-18T09:29:45.016Z,5.50
2022-09-18T09:32:41.824Z,5.75
2022-09-18T09:35:45.586Z,10.48
2022-09-18T09:38:38.317Z,6.13
2022-09-18T09:41:43.870Z,9.40
2022-09-18T09:44:24.870Z,6.38
2022-09-18T09:47:15.187Z,8.90
2022-09-18T09:50:08.632Z,8.07
2022-09-18T09:52:46.468Z,5.65
2022-09-18T09:55:15.722Z,4.05
2022-09-18T09:58:07.094Z,5.05
2022-09-18T10:00:46.179Z,6.68
2022-09-18T10:03:31.355Z,5.72
2022-09-18T10:06:05.839Z,5.95
2022-09-18T10:08:54.804Z,6.38
2022-09-18T10:11:25.346Z,9.30
2022-09-18T10:14:04.957Z,5.47
2022-09-18T10:16:43.169Z,4.55
2022-09-18T10:19:15.748Z,4.72
2022-09-18T10:21:43.318Z,8.82
2022-09-18T10:24:28.507Z,5.00
2022-09-18T10:27:03.334Z,7.20
2022-09-18T10:29:35.616Z,4.63
2022-09-18T10:32:04.806Z,6.75
2022-09-18T10:34:48.449Z,7.07
2022-09-18T10:37:29.750Z,8.82
2022-09-18T10:40:02.049Z,6.72
2022-09-18T10:42:33.983Z,6.22
2022-09-18T10:45:29.256Z,9.10
2022-09-18T10:48:14.094Z,5.20
2022-09-18T10:51:02.479Z,8.55
2022-09-18T10:53:40.555Z,6.13
2022-09-18T10:56:26.807Z,10.38
2022-09-18T10:58:58.103Z,5.40
2022-09-18T11:01:25.714Z,7.88
2022-09-18T11:04:04.815Z,5.95
2022-09-18T11:06:37.580Z,6.25
2022-09-18T11:09:19.833Z,4.93
2022-09-18T11:11:51.234Z,3.85
2022-09-18T11:14:29.991Z,5.78
2022-09-18T11:17:04.546Z,6.75
2022-09-18T11:19:39.395Z,7.72
2022-09-18T11:22:44.411Z,5.28
2022-09-18T11:25:37.252Z,5.38
2022-09-18T11:28:41.836Z,7.32
2022-09-18T11:31:14.596Z,6.75
2022-09-18T11:33:50.150Z,5.30
2022-09-18T11:36:31.730Z,9.23
2022-09-18T11:39:01.312Z,4.95
2022-09-18T11:41:37.047Z,7.88
2022-09-18T11:44:12.238Z,3.60
2022-09-18T11:47:16.078Z,3.03
2022-09-18T11:49:48.628Z,7.45
2022-09-18T11:52:27.719Z,5.53
2022-09-18T11:55:08.110Z,8.23
2022-09-18T11:57:40.292Z,4.68
2022-09-18T12:00:17.464Z,2.63
2022-09-18T12:03:19.131Z,3.38
2022-09-18T12:06:17.493Z,5.25
2022-09-18T12:09:10.989Z,2.30
2022-09-18T12:12:03.783Z,5.70
2022-09-18T12:14:48.174Z,5.30
2022-09-18T12:20:30.690Z,9.07
2022-09-18T12:23:00.995Z,3.75
2022-09-18T12:25:31.276Z,7.30
2022-09-18T12:28:51.047Z,5.65
2022-09-18T12:31:35.936Z,9.18
2022-09-18T12:34:26.916Z,5.45
2022-09-18T12:37:08.690Z,3.58
2022-09-18T12:40:06.902Z,5.70
2022-09-18T12:43:00.853Z,5.30
2022-09-18T12:45:30.592Z,5.38
2022-09-18T12:48:18.150Z,5.35
2022-09-18T12:51:10.239Z,4.55
2022-09-18T12:53:43.375Z,3.17
2022-09-18T12:56:44.961Z,3.15
2022-09-18T12:59:20.475Z,5.53
2022-09-18T13:01:54.073Z,6.25
2022-09-18T13:04:32.355Z,5.72
2022-09-18T13:07:19.214Z,11.05
2022-09-18T13:09:45.807Z,4.22
2022-09-18T13:12:18.786Z,6.38
2022-09-18T13:15:09.730Z,6.57
2022-09-18T13:17:44.133Z,6.57
2022-09-18T13:20:23.814Z,4.30
2022-09-18T13:22:53.390Z,6.85
2022-09-18T13:25:32.193Z,4.47
2022-09-18T13:28:01.995Z,5.22
2022-09-18T13:30:32.446Z,3.55
2022-09-18T13:33:00.550Z,8.82
2022-09-18T13:35:39.430Z,5.57
2022-09-18T13:38:08.783Z,6.10
2022-09-18T13:40:42.623Z,5.30
2022-09-18T13:43:27.806Z,3.50
2022-09-18T13:45:56.326Z,7.03
2022-09-18T13:48:28.141Z,5.32
2022-09-18T13:51:02.800Z,7.88
2022-09-18T13:53:38.317Z,7.43
2022-09-18T13:56:16.448Z,14.98
2022-09-18T13:58:52.930Z,9.98
2022-09-18T14:01:41.723Z,6.60
2022-09-18T14:04:39.848Z,5.90
2022-09-18T14:07:18.628Z,4.10
2022-09-18T14:09:59.770Z,3.22
2022-09-18T14:12:32.551Z,3.03
2022-09-18T14:15:06.616Z,5.97
2022-09-18T14:17:35.291Z,5.43
2022-09-18T14:20:18.845Z,2.97
2022-09-18T14:22:45.731Z,3.67
2022-09-18T14:25:35.448Z,3.45
2022-09-18T14:28:05.484Z,3.58
2022-09-18T14:30:32.363Z,3.85
2022-09-18T14:33:11.802Z,7.03
2022-09-18T14:35:51.685Z,5.38
2022-09-18T14:38:25.827Z,2.60
2022-09-18T14:41:07.058Z,5.03
2022-09-18T14:46:56.104Z,3.85
2022-09-18T14:52:24.250Z,2.95
2022-09-18T14:54:53.031Z,4.47
2022-09-18T14:57:35.104Z,6.50
2022-09-18T15:00:02.469Z,4.05
2022-09-18T15:02:34.036Z,5.10
2022-09-18T15:05:03.658Z,3.87
2022-09-18T15:07:30.636Z,4.75
2022-09-18T15:10:01.227Z,8.40
2022-09-18T15:12:30.505Z,3.72
2022-09-18T15:14:58.736Z,3.75
2022-09-18T15:17:27.545Z,3.88
2022-09-18T15:19:59.813Z,10.07
2022-09-18T15:25:15.796Z,4.93
2022-09-18T15:27:44.492Z,6.22
2022-09-18T15:30:18.827Z,5.00
2022-09-18T15:33:00.818Z,5.15
2022-09-18T15:35:35.273Z,4.18
2022-09-18T15:38:08.238Z,5.13
2022-09-18T15:40:38.212Z,6.22
2022-09-18T15:43:07.595Z,6.45
2022-09-18T15:45:36.239Z,9.40
2022-09-18T15:48:30.988Z,6.47
2022-09-18T15:51:20.876Z,5.80
2022-09-18T15:54:12.759Z,4.28
2022-09-18T15:56:49.561Z,5.70
2022-09-18T15:59:35.022Z,5.55
2022-09-18T16:02:07.464Z,3.88
2022-09-18T16:07:16.193Z,9.40
2022-09-18T16:09:45.655Z,6.35
2022-09-18T16:12:30.439Z,4.10
2022-09-18T16:15:16.153Z,4.75
2022-09-18T16:17:45.487Z,6.05
2022-09-18T16:20:34.092Z,5.38
2022-09-18T16:23:25.759Z,9.18
2022-09-18T16:26:32.382Z,4.45
2022-09-18T16:29:06.539Z,3.00
2022-09-18T16:31:38.877Z,6.43
2022-09-18T16:36:46.816Z,5.35
2022-09-18T16:39:16.379Z,6.05
2022-09-18T16:41:43.571Z,6.82
2022-09-18T16:44:11.707Z,7.57
2022-09-18T16:46:43.353Z,8.77
2022-09-18T16:49:11.875Z,9.50
2022-09-18T16:51:38.656Z,6.53
2022-09-18T16:54:05.718Z,7.65
2022-09-18T16:56:42.978Z,5.60
2022-09-18T16:59:10.273Z,9.13
2022-09-18T17:01:54.218Z,5.95
2022-09-18T17:04:26.895Z,4.97
2022-09-18T17:06:53.849Z,3.75
2022-09-18T17:09:21.399Z,3.80
2022-09-18T17:11:48.163Z,3.38
2022-09-18T17:14:14.801Z,3.80
2022-09-18T17:16:44.988Z,4.95
2022-09-18T17:19:11.968Z,7.13
2022-09-18T17:21:39.716Z,7.15
2022-09-18T17:24:07.277Z,3.67
2022-09-18T17:26:38.447Z,10.23
2022-09-18T17:29:06.010Z,7.57
2022-09-18T17:31:32.817Z,5.82
2022-09-18T17:33:59.549Z,6.05
2022-09-18T17:36:26.403Z,10.05
2022-09-18T17:38:53.162Z,10.65
2022-09-18T17:41:20.476Z,9.95
2022-09-18T17:43:54.224Z,10.23
2022-09-18T17:46:21.338Z,4.82
2022-09-18T17:48:48.350Z,10.77
2022-09-18T17:51:18.306Z,4.93
2022-09-18T17:53:47.002Z,6.90
2022-09-18T17:56:17.646Z,9.68
2022-09-18T17:58:45.352Z,12.55
2022-09-18T18:01:17.480Z,12.05
2022-09-18T18:03:44.699Z,6.30
2022-09-18T18:06:11.363Z,8.48
2022-09-18T18:08:38.364Z,7.45
2022-09-18T18:11:10.300Z,5.68
2022-09-18T18:13:38.762Z,10.25
2022-09-18T18:16:11.884Z,9.18
2022-09-18T18:18:38.699Z,9.70
2022-09-18T18:21:07.012Z,5.53
2022-09-18T18:23:34.388Z,8.93
2022-09-18T18:26:02.578Z,8.43
2022-09-18T18:28:31.979Z,6.90
2022-09-18T18:31:11.971Z,7.25
2022-09-18T18:33:41.267Z,7.57
2022-09-18T18:36:13.012Z,7.00
2022-09-18T18:38:41.525Z,9.45
2022-09-18T18:41:09.107Z,10.05
2022-09-18T18:43:37.757Z,12.32
2022-09-18T18:46:07.045Z,9.57
2022-09-18T18:48:34.452Z,14.50
2022-09-18T18:51:04.933Z,12.60
2022-09-18T18:53:31.912Z,13.38
2022-09-18T18:56:10.010Z,13.45
2022-09-18T18:58:37.323Z,10.73
2022-09-18T19:01:16.851Z,9.82
2022-09-18T19:03:49.946Z,9.98
2022-09-18T19:06:16.887Z,13.23
2022-09-18T19:08:47.591Z,6.00
2022-09-18T19:11:15.979Z,11.80
2022-09-18T19:13:44.568Z,13.88
2022-09-18T19:16:12.363Z,10.10
2022-09-18T19:18:40.014Z,10.45
2022-09-18T19:21:07.620Z,9.55
2022-09-18T19:23:35.387Z,12.55
2022-09-18T19:26:02.552Z,14.23
2022-09-18T19:28:30.417Z,14.35
2022-09-18T19:31:04.373Z,14.25
2022-09-18T19:33:33.049Z,10.90
2022-09-18T19:36:07.257Z,9.82
2022-09-18T19:38:36.205Z,11.80
2022-09-18T19:41:19.727Z,15.98
2022-09-18T19:43:46.877Z,17.95
2022-09-18T19:46:21.369Z,13.93
2022-09-18T19:48:48.147Z,15.80
2022-09-18T19:51:14.776Z,17.15
2022-09-18T19:53:41.440Z,14.13
2022-09-18T19:56:27.466Z,12.13
2022-09-18T19:58:57.475Z,12.93
2022-09-18T20:01:24.163Z,21.65
2022-09-18T20:03:54.642Z,16.17
2022-09-18T20:06:22.813Z,18.15
2022-09-18T20:08:50.000Z,17.35
2022-09-18T20:11:16.876Z,17.02
2022-09-18T20:13:43.506Z,13.60
2022-09-18T20:16:10.805Z,17.45
2022-09-18T20:18:38.214Z,8.23
2022-09-18T20:21:09.827Z,10.48
2022-09-18T20:23:37.296Z,12.05
2022-09-18T20:26:12.134Z,20.33
2022-09-18T20:28:39.454Z,10.95
2022-09-18T20:31:10.313Z,12.48
2022-09-18T20:33:37.940Z,13.77
2022-09-18T20:36:07.739Z,17.17
2022-09-18T20:38:39.018Z,14.05
2022-09-18T20:41:16.852Z,12.13
2022-09-18T20:43:45.391Z,17.58
2022-09-18T20:46:15.571Z,15.07
2022-09-18T20:48:46.293Z,13.00
2022-09-18T20:51:14.911Z,9.68
2022-09-18T20:53:45.581Z,13.68
2022-09-18T20:56:14.642Z,9.00
2022-09-18T20:58:44.571Z,14.90
2022-09-18T21:01:12.241Z,20.83
2022-09-18T21:03:41.146Z,16.85
2022-09-18T21:06:22.460Z,17.63
2022-09-18T21:08:53.000Z,15.87
2022-09-18T21:11:23.428Z,17.52
2022-09-18T21:13:59.099Z,13.85
2022-09-18T21:16:35.089Z,16.38
2022-09-18T21:19:04.883Z,11.15
2022-09-18T21:21:35.751Z,14.45
2022-09-18T21:24:02.812Z,10.73
2022-09-18T21:26:42.989Z,16.85
2022-09-18T21:29:14.570Z,14.35
2022-09-18T21:31:42.656Z,10.75
2022-09-18T21:34:14.688Z,17.30
2022-09-18T21:36:44.411Z,13.50
2022-09-18T21:39:12.869Z,10.65
2022-09-18T21:41:40.024Z,12.30
2022-09-18T21:44:08.849Z,21.08
2022-09-18T21:46:38.359Z,15.70
2022-09-18T21:49:08.660Z,16.40
2022-09-18T21:51:37.140Z,11.10
2022-09-18T21:54:05.527Z,13.75
2022-09-18T21:56:33.492Z,15.93
2022-09-18T21:59:00.710Z,11.60
2022-09-18T22:01:31.573Z,16.33
2022-09-18T22:04:00.771Z,11.38
2022-09-18T22:06:29.952Z,13.30
2022-09-18T22:08:58.462Z,16.63
2022-09-18T22:11:27.558Z,10.60
2022-09-18T22:13:58.182Z,15.52
2022-09-18T22:16:27.354Z,15.90
2022-09-18T22:18:54.295Z,14.05
2022-09-18T22:21:23.896Z,15.65
2022-09-18T22:23:53.256Z,16.77
2022-09-18T22:26:25.355Z,13.13
2022-09-18T22:28:54.408Z,14.40
2022-09-18T22:31:22.320Z,16.70
2022-09-18T22:33:52.984Z,13.63
2022-09-18T22:36:19.961Z,14.10
2022-09-18T22:38:46.668Z,17.23
2022-09-18T22:41:13.456Z,15.30
2022-09-18T22:43:41.026Z,15.48
2022-09-18T22:46:10.458Z,9.57
2022-09-18T22:48:38.310Z,13.82
2022-09-18T22:51:13.555Z,18.98
2022-09-18T22:53:45.838Z,16.10
2022-09-18T22:56:13.935Z,16.15
2022-09-18T22:58:41.859Z,15.85
2022-09-18T23:01:14.240Z,14.07
2022-09-18T23:03:41.332Z,18.65
2022-09-18T23:06:09.139Z,14.57
2022-09-18T23:08:36.684Z,13.80
2022-09-18T23:11:08.389Z,17.20
2022-09-18T23:13:40.065Z,13.47
2022-09-18T23:16:09.732Z,16.00
2022-09-18T23:18:38.186Z,13.35
2022-09-18T23:21:13.989Z,12.60
2022-09-18T23:23:42.991Z,14.80
2022-09-18T23:26:13.770Z,10.00
2022-09-18T23:28:42.649Z,15.68
2022-09-18T23:31:18.486Z,15.60
2022-09-18T23:33:50.869Z,15.45
2022-09-18T23:36:21.034Z,17.65
2022-09-18T23:38:49.548Z,11.70
2022-09-18T23:41:16.978Z,17.63
2022-09-18T23:43:50.141Z,18.75
2022-09-18T23:46:18.160Z,18.35
2022-09-18T23:48:45.534Z,18.48
2022-09-18T23:51:12.827Z,14.70
2022-09-18T23:53:40.576Z,16.77
2022-09-18T23:56:12.423Z,19.17
2022-09-18T23:58:40.178Z,21.55
